Terminal Aerodrome Forecast
Issued by NWS Buffalo, NY

Home | Current Version | Previous Version | Text Only | Print | Product List | Glossary On
Versions: 1 2 3 4 5 6 7 8 9 10 11 12 13 14 15 16 17 18 19 20 21 22 23 24 25 26
987
FTUS41 KBUF 072335
TAFART
TAF
KART 072335Z 0800/0824 26011KT P6SM OVC040
     FM080500 24010KT 6SM -DZ OVC025
     FM080800 24010G18KT 2SM -SN OVC025
     FM081600 25017G24KT 2SM -SN BLSN OVC015
     FM082000 25015G25KT P6SM VCSH OVC025
     FM082200 25015G25KT P6SM OVC040=

USA.gov is the U.S. government's official web portal to all federal, state and local government web resources and services.